Time;durP1;ratioP1;P1;durP2;ratioP2;P2;SDS_P1;SDS_P2;PMS_P1;PMS_P2;Temp;Humidity;BMP_temperature;BMP_pressure;BME280_temperature;BME280_humidity;BME280_pressure;Samples;Min_cycle;Max_cycle;Signal;HPM_P1;HPM_P2
2021/12/14 00:01:55;;;;;;;18.58;8.65;;;;;;;0.70;67.92;100202.87;5299924;27;34072;-68
2021/12/14 00:04:32;;;;;;;19.85;9.20;;;;;;;0.42;68.90;100214.47;5299867;27;35101;-68
2021/12/14 00:07:03;;;;;;;18.27;9.10;;;;;;;0.12;71.41;100214.84;5298564;27;34583;-68
2021/12/14 00:09:35;;;;;;;15.85;8.70;;;;;;;-0.31;74.12;100217.16;5300280;27;34350;-68
2021/12/14 00:15:04;;;;;;;17.30;7.95;;;;;;;0.17;73.26;100218.50;5299680;27;35874;-68
2021/12/14 00:17:41;;;;;;;;;;;;;;;0.21;72.70;100213.53;5300227;27;34523;-68
2021/12/14 00:20:18;;;;;;;14.35;7.45;;;;;;;-0.04;72.47;100220.09;5300096;27;33560;-68
2021/12/14 00:25:35;;;;;;;12.70;7.12;;;;;;;0.40;70.15;100218.66;5299776;27;35170;-68
2021/12/14 00:28:12;;;;;;;12.57;5.82;;;;;;;0.04;70.94;100213.66;5298752;27;35345;-68
2021/12/14 00:30:42;;;;;;;13.50;5.97;;;;;;;-0.20;70.79;100213.41;5300085;27;33543;-69
2021/12/14 00:33:14;;;;;;;15.85;6.75;;;;;;;0.45;67.99;100222.31;5299582;27;34103;-68
2021/12/14 00:35:43;;;;;;;12.80;7.00;;;;;;;0.52;66.99;100223.47;5300029;27;35908;-68
2021/12/14 00:38:14;;;;;;;15.48;7.70;;;;;;;0.44;66.64;100223.13;5300649;27;34634;-68
2021/12/14 00:40:47;;;;;;;25.88;10.98;;;;;;;0.53;67.84;100225.19;5281467;27;33549;-68
2021/12/14 00:43:15;;;;;;;12.50;6.57;;;;;;;-0.20;70.50;100221.06;5300832;27;35034;-68
2021/12/14 00:45:46;;;;;;;13.07;6.12;;;;;;;-0.35;69.67;100225.47;5300672;27;37131;-68
2021/12/14 00:48:14;;;;;;;16.35;8.15;;;;;;;-0.27;70.05;100230.13;5298756;27;34472;-68
2021/12/14 00:50:47;;;;;;;16.30;9.07;;;;;;;-0.47;70.19;100236.00;5300702;27;33712;-68
2021/12/14 00:53:15;;;;;;;16.90;8.32;;;;;;;-0.87;70.86;100239.19;5300290;27;34231;-68
2021/12/14 00:55:46;;;;;;;13.62;6.30;;;;;;;-0.63;70.71;100242.94;5300940;27;35234;-68
2021/12/14 00:58:15;;;;;;;15.25;7.00;;;;;;;-0.31;69.20;100241.03;5300000;27;35160;-68
2021/12/14 01:00:47;;;;;;;17.58;9.05;;;;;;;0.26;67.10;100233.41;5300092;27;33675;-68
2021/12/14 01:03:16;;;;;;;14.93;7.40;;;;;;;-0.85;71.78;100225.66;5300595;27;34777;-68
2021/12/14 01:05:47;;;;;;;16.33;7.80;;;;;;;-0.33;69.87;100227.31;5300551;27;35291;-68
2021/12/14 01:08:25;;;;;;;11.88;6.80;;;;;;;-0.28;68.53;100220.72;5300549;27;34404;-68
2021/12/14 01:11:04;;;;;;;15.52;8.25;;;;;;;-0.70;69.31;100234.91;5300462;27;33595;-68
2021/12/14 01:13:36;;;;;;;17.85;8.98;;;;;;;-0.80;69.39;100228.44;5300086;27;34012;-68
2021/12/14 01:16:30;;;;;;;16.83;8.00;;;;;;;-1.54;76.06;100237.50;5300420;27;35940;-68
2021/12/14 01:19:17;;;;;;;14.55;7.00;;;;;;;-1.23;75.56;100237.41;5300091;27;34480;-68
2021/12/14 01:25:03;;;;;;;14.27;8.27;;;;;;;-0.85;70.08;100247.78;5300175;27;34122;-68
2021/12/14 01:27:27;;;;;;;12.93;7.37;;;;;;;-0.60;70.40;100250.78;5297756;27;35181;-68
2021/12/14 01:29:56;;;;;;;12.63;6.97;;;;;;;-0.67;68.55;100256.41;5299752;27;34525;-68
2021/12/14 01:32:28;;;;;;;13.38;8.13;;;;;;;-1.10;70.83;100244.00;5298631;27;34196;-68
2021/12/14 01:34:56;;;;;;;10.32;6.70;;;;;;;-1.17;73.71;100247.94;5300233;27;33962;-68
2021/12/14 01:37:28;;;;;;;15.23;7.93;;;;;;;-1.42;76.16;100239.81;5298728;27;35830;-68
2021/12/14 01:40:06;;;;;;;12.25;6.53;;;;;;;-1.23;74.47;100239.09;5299915;27;34545;-67
2021/12/14 01:42:38;;;;;;;11.12;5.97;;;;;;;-1.38;73.90;100236.63;5300428;27;34475;-68
2021/12/14 01:45:12;;;;;;;8.40;5.15;;;;;;;-1.22;71.71;100238.28;5299611;27;34060;-68
2021/12/14 01:47:52;;;;;;;12.13;6.32;;;;;;;-0.71;69.15;100241.69;5299131;27;35070;-68
2021/12/14 01:50:34;;;;;;;12.70;6.28;;;;;;;-0.84;70.52;100244.44;5298887;27;34578;-67
2021/12/14 01:53:03;;;;;;;9.68;5.05;;;;;;;-0.26;67.77;100237.03;5299991;27;33571;-68
2021/12/14 01:55:34;;;;;;;9.55;4.95;;;;;;;-0.64;69.04;100241.16;5300235;27;33567;-68
2021/12/14 01:58:05;;;;;;;10.05;5.55;;;;;;;-1.13;70.79;100228.50;5300301;27;35057;-68
2021/12/14 02:00:44;;;;;;;17.80;5.12;;;;;;;-1.70;76.32;100242.62;5299564;27;34366;-68
2021/12/14 02:03:14;;;;;;;10.02;4.97;;;;;;;-0.65;71.87;100225.78;5299647;27;33273;-68
2021/12/14 02:05:51;;;;;;;12.50;4.97;;;;;;;-0.43;69.15;100225.97;5300279;27;34743;-67
2021/12/14 02:08:23;;;;;;;;;;;;;;;0.00;65.05;100232.25;5300220;27;35030;-68
2021/12/14 02:10:53;;;;;;;7.28;3.78;;;;;;;-0.56;66.52;100231.34;5300373;27;34880;-68
2021/12/14 02:13:27;;;;;;;8.70;4.65;;;;;;;-1.16;67.73;100233.50;5299575;27;33712;-67
2021/12/14 02:15:56;;;;;;;9.40;4.62;;;;;;;-1.21;69.98;100233.25;5300143;27;34100;-68
2021/12/14 02:18:29;;;;;;;7.57;4.43;;;;;;;-0.73;70.40;100230.50;5300102;27;35226;-67
2021/12/14 02:21:16;;;;;;;11.02;5.07;;;;;;;-0.85;69.91;100229.91;5300549;27;35255;-68
2021/12/14 02:23:49;;;;;;;14.02;6.37;;;;;;;-0.66;69.52;100232.56;5298857;27;33402;-68
2021/12/14 02:26:22;;;;;;;9.55;5.45;;;;;;;-1.03;71.85;100232.44;5298980;27;33970;-68
2021/12/14 02:28:50;;;;;;;10.23;5.25;;;;;;;-1.51;74.21;100236.81;5298584;27;35177;-68
2021/12/14 02:31:23;;;;;;;12.57;6.95;;;;;;;-1.30;73.92;100237.91;5298578;27;35135;-68
2021/12/14 02:33:53;;;;;;;9.13;5.22;;;;;;;-1.28;71.19;100237.97;5298888;27;34540;-68
2021/12/14 02:36:28;;;;;;;10.88;5.28;;;;;;;-1.60;71.26;100234.66;5298934;27;33152;-68
2021/12/14 02:39:10;;;;;;;7.18;4.37;;;;;;;-0.82;69.36;100236.03;5287353;27;304812;-68
2021/12/14 02:41:46;;;;;;;13.88;5.90;;;;;;;-0.81;69.53;100236.94;5293179;27;35291;-68
2021/12/14 02:44:15;;;;;;;12.80;6.67;;;;;;;-0.77;70.21;100234.59;5298873;27;33376;-68
2021/12/14 02:46:47;;;;;;;8.57;4.85;;;;;;;-0.44;67.51;100233.56;5297814;27;34014;-68
2021/12/14 02:49:19;;;;;;;12.68;4.55;;;;;;;-0.71;68.10;100234.00;5298785;27;33709;-68
2021/12/14 02:51:51;;;;;;;11.77;5.25;;;;;;;-0.49;66.85;100230.81;5300600;27;34234;-69
2021/12/14 02:54:21;;;;;;;4.82;3.80;;;;;;;-1.45;68.78;100232.88;5299609;27;33650;-68
2021/12/14 02:57:25;;;;;;;14.90;6.32;;;;;;;-1.30;67.80;100235.34;5300243;27;33843;-69
2021/12/14 02:59:55;;;;;;;12.48;7.20;;;;;;;-1.69;71.01;100242.69;5287369;27;35062;-68
2021/12/14 03:02:26;;;;;;;17.23;7.85;;;;;;;-1.31;71.08;100236.13;5290231;27;34461;-69
2021/12/14 03:05:02;;;;;;;12.50;6.50;;;;;;;-1.63;73.40;100232.78;5299034;27;33626;-69
2021/12/14 03:07:33;;;;;;;11.23;5.23;;;;;;;-1.85;73.24;100238.47;5291818;27;34768;-68
2021/12/14 03:10:20;;;;;;;8.75;5.50;;;;;;;-1.83;73.67;100244.50;5298374;27;34650;-69
2021/12/14 03:12:53;;;;;;;10.43;4.95;;;;;;;-2.19;73.12;100239.19;5298821;27;34496;-68
2021/12/14 03:15:32;;;;;;;8.45;4.32;;;;;;;-1.38;70.59;100224.75;5298647;27;34384;-69
2021/12/14 03:18:07;;;;;;;12.95;5.95;;;;;;;-1.20;67.87;100229.00;5299078;27;34532;-68
2021/12/14 03:20:39;;;;;;;13.60;6.75;;;;;;;-1.62;69.32;100241.34;5298593;27;36059;-68
2021/12/14 03:23:11;;;;;;;12.32;5.87;;;;;;;-1.84;70.33;100236.78;5299045;27;34695;-69
2021/12/14 03:25:44;;;;;;;10.25;5.18;;;;;;;-1.29;69.10;100221.75;5299113;27;33777;-69
2021/12/14 03:28:13;;;;;;;9.63;5.07;;;;;;;-1.93;69.19;100232.06;5298623;27;34641;-69
2021/12/14 03:30:47;;;;;;;25.62;11.45;;;;;;;-2.55;71.24;100233.78;5298992;27;35131;-68
2021/12/14 03:33:22;;;;;;;21.90;9.68;;;;;;;-2.68;73.57;100229.69;5299265;27;34503;-68
2021/12/14 03:35:56;;;;;;;19.60;9.70;;;;;;;-2.44;76.32;100228.41;5299315;27;33279;-69
2021/12/14 03:38:32;;;;;;;15.73;7.15;;;;;;;-2.25;78.33;100231.19;5299113;27;34037;-69
2021/12/14 03:41:06;;;;;;;;;;;;;;;-1.90;76.59;100229.66;5299443;27;36076;-69
2021/12/14 03:43:36;;;;;;;15.23;6.28;;;;;;;-1.61;75.75;100220.09;5298854;27;35410;-68
2021/12/14 03:46:06;;;;;;;11.25;5.95;;;;;;;-1.51;74.74;100217.25;5299215;27;32809;-68
2021/12/14 03:48:34;;;;;;;16.27;6.62;;;;;;;-1.08;72.25;100218.53;5298283;27;33795;-68
2021/12/14 03:51:03;;;;;;;16.20;6.95;;;;;;;-1.38;71.38;100209.41;5299790;27;34912;-69
2021/12/14 03:53:32;;;;;;;13.90;6.82;;;;;;;-1.61;70.61;100209.91;5300196;27;34681;-69
2021/12/14 03:56:04;;;;;;;21.65;10.57;;;;;;;-1.89;71.24;100210.13;5280905;27;34362;-69
2021/12/14 03:58:37;;;;;;;24.37;10.85;;;;;;;-2.01;73.42;100216.34;5300117;27;34772;-69
2021/12/14 04:01:19;;;;;;;24.80;9.93;;;;;;;-1.75;73.21;100219.38;5299683;27;34984;-68
2021/12/14 04:03:52;;;;;;;18.23;7.50;;;;;;;-1.47;73.60;100220.81;5299373;27;34615;-69
2021/12/14 04:06:21;;;;;;;11.60;6.70;;;;;;;-1.09;70.80;100212.56;5300045;27;33626;-68
2021/12/14 04:08:51;;;;;;;24.60;10.20;;;;;;;-1.61;70.41;100217.56;5299383;27;33715;-68
2021/12/14 04:11:19;;;;;;;14.63;9.38;;;;;;;-1.59;72.60;100214.31;5300901;27;34836;-68
2021/12/14 04:13:50;;;;;;;16.90;7.70;;;;;;;-1.73;74.45;100213.56;5300520;27;34562;-69
2021/12/14 04:16:23;;;;;;;16.40;7.55;;;;;;;-0.52;68.95;100219.56;5301245;27;33979;-68
2021/12/14 04:18:52;;;;;;;16.62;7.72;;;;;;;-0.29;67.39;100210.41;5300508;27;33672;-68
2021/12/14 04:21:21;;;;;;;21.52;8.73;;;;;;;-0.33;68.13;100211.09;5301050;27;35211;-69
2021/12/14 04:23:51;;;;;;;14.43;8.02;;;;;;;-0.31;67.51;100205.22;5299678;27;35269;-68
2021/12/14 04:26:20;;;;;;;13.60;7.65;;;;;;;-0.50;67.55;100208.59;5280610;27;33642;-68
2021/12/14 04:28:53;;;;;;;14.52;6.95;;;;;;;-0.26;67.17;100208.00;5298825;27;33873;-69
2021/12/14 04:31:22;;;;;;;14.82;6.47;;;;;;;-0.41;66.71;100208.16;5298252;27;35622;-68
2021/12/14 04:33:52;;;;;;;15.90;7.35;;;;;;;-1.39;69.72;100220.44;5299068;27;34422;-69
2021/12/14 04:36:24;;;;;;;15.85;9.25;;;;;;;-1.34;72.00;100224.09;5299982;27;33546;-69
2021/12/14 04:39:00;;;;;;;14.68;8.38;;;;;;;-1.56;74.02;100222.09;5299447;27;33972;-69
2021/12/14 04:52:59;;;;;;;;;;;;;;;-1.38;70.38;100221.28;5299791;27;35490;-68
2021/12/14 04:55:28;;;;;;;15.73;6.68;;;;;;;-1.46;71.44;100222.59;5299569;27;34700;-68
2021/12/14 04:57:56;;;;;;;11.65;7.28;;;;;;;-1.71;72.58;100211.09;5300347;27;33597;-68
2021/12/14 05:00:39;;;;;;;15.13;7.32;;;;;;;-1.43;70.69;100210.84;5299630;27;33836;-68
2021/12/14 05:03:28;;;;;;;13.18;7.87;;;;;;;-1.69;69.97;100213.72;5300291;27;35140;-69
2021/12/14 05:06:10;;;;;;;27.17;9.80;;;;;;;-2.26;72.42;100221.75;5280285;27;34082;-69
2021/12/14 05:11:14;;;;;;;19.42;8.73;;;;;;;-1.91;77.13;100218.59;5300115;27;33560;-69
2021/12/14 05:13:46;;;;;;;20.35;8.45;;;;;;;-1.72;77.93;100222.97;5300511;27;34887;-68
2021/12/14 05:16:22;;;;;;;20.05;7.80;;;;;;;-1.31;76.98;100227.59;5299322;27;35244;-68
2021/12/14 05:19:02;;;;;;;16.42;8.13;;;;;;;-0.65;71.90;100224.09;5298117;27;33522;-68
2021/12/14 05:21:50;;;;;;;12.00;8.18;;;;;;;-1.06;71.99;100225.50;5299203;27;34045;-68
2021/12/14 05:24:23;;;;;;;14.43;7.03;;;;;;;-0.85;71.08;100232.44;5299970;27;35943;-68
2021/12/14 05:27:01;;;;;;;18.35;9.60;;;;;;;-0.86;70.89;100238.38;5300744;27;34470;-68
2021/12/14 05:29:32;;;;;;;15.48;9.13;;;;;;;-1.10;71.91;100233.78;5300426;27;33608;-68
2021/12/14 05:32:03;;;;;;;14.75;8.45;;;;;;;-1.02;70.89;100239.31;5300507;27;33965;-68
2021/12/14 05:34:37;;;;;;;18.02;8.70;;;;;;;-1.01;71.42;100238.47;5300436;27;34201;-68
2021/12/14 05:37:07;;;;;;;36.00;12.70;;;;;;;-0.92;71.69;100238.06;5300889;27;34435;-68
2021/12/14 05:39:59;;;;;;;17.35;9.43;;;;;;;-1.19;73.21;100241.88;5300196;27;32854;-68
2021/12/14 05:45:21;;;;;;;16.70;8.13;;;;;;;-0.43;68.96;100240.47;5299901;27;35181;-68
2021/12/14 05:47:57;;;;;;;18.58;9.25;;;;;;;-0.68;68.39;100244.37;5300138;27;34527;-68
2021/12/14 05:50:32;;;;;;;22.55;11.27;;;;;;;-0.35;66.54;100239.16;5300296;27;34425;-68
2021/12/14 05:53:01;;;;;;;14.32;7.82;;;;;;;-1.21;70.88;100242.59;5299976;27;34043;-68
2021/12/14 05:55:33;;;;;;;15.82;8.10;;;;;;;-1.13;71.67;100248.97;5299659;27;35092;-68
2021/12/14 05:58:04;;;;;;;17.17;9.20;;;;;;;-1.02;71.94;100241.88;5299950;27;34491;-68
2021/12/14 06:00:33;;;;;;;21.40;8.57;;;;;;;-1.12;69.80;100243.06;5299760;27;34598;-68
2021/12/14 06:03:02;;;;;;;24.70;10.63;;;;;;;-2.05;71.05;100249.25;5300237;27;33429;-68
2021/12/14 06:05:30;;;;;;;24.77;10.15;;;;;;;-1.94;73.95;100258.34;5300116;27;35076;-69
2021/12/14 06:08:00;;;;;;;20.95;10.25;;;;;;;-1.29;72.52;100249.84;5300158;27;34357;-69
2021/12/14 06:10:29;;;;;;;15.73;9.02;;;;;;;-1.46;73.57;100245.59;5298318;27;34330;-70
2021/12/14 06:12:57;;;;;;;32.80;13.93;;;;;;;-1.93;76.58;100255.03;5299473;27;33962;-70
2021/12/14 06:15:28;;;;;;;13.38;7.72;;;;;;;-1.75;74.21;100261.13;5299391;27;36028;-70
2021/12/14 06:17:58;;;;;;;29.23;11.10;;;;;;;-1.34;71.82;100262.41;5300327;27;34384;-70
2021/12/14 06:20:29;;;;;;;13.95;8.75;;;;;;;-2.13;72.64;100264.16;5298047;27;34312;-70
2021/12/14 06:22:57;;;;;;;18.08;10.32;;;;;;;-2.73;77.58;100265.91;5300602;27;33806;-70
2021/12/14 06:25:28;;;;;;;16.87;9.15;;;;;;;-2.17;76.57;100270.75;5299757;27;34292;-73
2021/12/14 06:27:59;;;;;;;19.50;8.55;;;;;;;-1.57;71.06;100260.31;5280916;27;35085;-71
2021/12/14 06:30:32;;;;;;;20.10;8.98;;;;;;;-1.18;69.57;100270.87;5300197;27;33656;-71
2021/12/14 06:33:06;;;;;;;30.02;12.30;;;;;;;-1.72;69.80;100268.94;5300700;27;34091;-71
2021/12/14 06:35:42;;;;;;;15.13;8.32;;;;;;;-1.83;71.63;100264.94;5299396;27;35086;-69
2021/12/14 06:41:09;;;;;;;13.85;7.50;;;;;;;-1.53;68.58;100259.69;5300148;27;33551;-70
2021/12/14 06:43:47;;;;;;;15.77;7.72;;;;;;;-1.40;68.11;100253.56;5298014;27;34809;-69
2021/12/14 06:46:19;;;;;;;20.10;9.32;;;;;;;-1.33;67.15;100265.84;5299275;27;34960;-70
2021/12/14 06:48:53;;;;;;;14.80;9.23;;;;;;;-1.42;67.10;100261.13;5299197;27;34136;-70
2021/12/14 06:51:26;;;;;;;22.15;10.00;;;;;;;-1.92;71.36;100267.00;5298733;27;33829;-70
2021/12/14 06:54:01;;;;;;;19.37;8.95;;;;;;;-1.60;71.34;100266.16;5300680;27;33987;-70
2021/12/14 06:56:32;;;;;;;15.03;7.70;;;;;;;-1.43;69.40;100277.28;5299149;27;35407;-70
2021/12/14 06:59:12;;;;;;;10.50;6.93;;;;;;;-1.95;73.90;100272.81;5299283;27;34410;-70
2021/12/14 07:01:43;;;;;;;18.15;9.88;;;;;;;-2.14;76.65;100285.34;5300159;27;34257;-70
2021/12/14 07:04:18;;;;;;;20.40;10.13;;;;;;;-1.03;72.76;100279.31;5300730;27;34613;-70
2021/12/14 07:06:52;;;;;;;25.87;9.77;;;;;;;-1.01;73.78;100285.38;5300068;27;35155;-70
2021/12/14 07:09:24;;;;;;;19.33;8.75;;;;;;;-0.84;76.04;100282.81;5299108;27;35141;-70
2021/12/14 07:12:01;;;;;;;12.37;7.62;;;;;;;0.47;69.69;100282.19;5301070;27;33691;-70
2021/12/14 07:14:32;;;;;;;17.70;8.77;;;;;;;0.84;63.47;100281.25;5300296;27;34829;-70
2021/12/14 07:17:11;;;;;;;18.02;8.52;;;;;;;0.90;62.18;100283.19;5296685;27;35789;-70
2021/12/14 07:19:56;;;;;;;22.35;10.18;;;;;;;1.02;63.00;100287.97;5300057;27;34710;-70
2021/12/14 07:22:30;;;;;;;17.08;8.43;;;;;;;0.83;64.86;100291.44;5299428;27;33549;-70
2021/12/14 07:25:15;;;;;;;14.75;7.12;;;;;;;0.31;69.66;100292.53;5299581;27;34084;-69
2021/12/14 07:27:59;;;;;;;26.10;13.10;;;;;;;0.67;68.25;100290.78;5299135;27;35082;-70
2021/12/14 07:30:40;;;;;;;17.35;10.13;;;;;;;0.71;67.32;100294.34;5299444;27;34555;-70
2021/12/14 07:33:16;;;;;;;14.68;7.35;;;;;;;1.13;66.91;100294.47;5300118;27;33385;-70
2021/12/14 07:35:52;;;;;;;18.27;10.40;;;;;;;1.50;66.69;100293.41;5299376;27;34521;-70
2021/12/14 07:38:35;;;;;;;18.10;8.85;;;;;;;1.95;65.24;100295.22;5299813;27;36038;-70
2021/12/14 07:41:20;;;;;;;15.23;8.60;;;;;;;1.59;68.51;100298.94;5299248;27;34056;-70
2021/12/14 07:43:48;;;;;;;15.03;8.10;;;;;;;1.50;71.17;100293.41;5299804;27;33735;-70
2021/12/14 07:46:25;;;;;;;18.27;9.38;;;;;;;2.72;65.57;100295.50;5298676;27;33867;-70
2021/12/14 07:48:58;;;;;;;17.08;10.45;;;;;;;3.00;66.05;100287.06;5299626;27;35102;-70
2021/12/14 07:51:28;;;;;;;18.37;8.77;;;;;;;3.45;65.58;100286.91;5299174;27;35355;-70
2021/12/14 07:54:21;;;;;;;18.77;8.93;;;;;;;4.39;62.12;100286.38;5299761;27;33984;-70
2021/12/14 07:57:11;;;;;;;16.37;7.60;;;;;;;4.21;62.05;100286.72;5291610;27;33920;-70
2021/12/14 07:59:46;;;;;;;17.95;8.07;;;;;;;5.06;58.22;100285.69;5299606;27;34030;-70
2021/12/14 08:02:45;;;;;;;13.57;8.27;;;;;;;5.09;59.21;100283.19;5299111;27;35177;-70
2021/12/14 08:05:19;;;;;;;31.42;13.23;;;;;;;4.00;59.18;100287.81;5298823;27;33565;-70
2021/12/14 08:07:53;;;;;;;177.50;46.20;;;;;;;3.58;62.85;100289.06;5299444;27;33876;-70
2021/12/14 08:10:25;;;;;;;44.30;15.70;;;;;;;5.09;59.52;100285.78;5299301;27;35875;-70
2021/12/14 08:13:16;;;;;;;24.95;13.77;;;;;;;5.51;58.04;100286.84;5299906;27;34330;-70
2021/12/14 08:15:53;;;;;;;61.50;22.83;;;;;;;3.85;62.26;100293.38;5298183;27;34445;-70
2021/12/14 08:18:33;;;;;;;69.75;23.48;;;;;;;4.69;60.98;100292.41;5298940;27;34092;-70
2021/12/14 08:21:08;;;;;;;18.30;10.07;;;;;;;5.21;58.66;100284.37;5299088;27;35154;-70
2021/12/14 08:23:57;;;;;;;15.68;8.13;;;;;;;3.87;60.49;100289.13;5299694;27;34506;-70
2021/12/14 08:26:34;;;;;;;17.23;9.07;;;;;;;3.19;62.87;100288.59;5299038;27;34331;-70
2021/12/14 08:29:11;;;;;;;49.53;19.65;;;;;;;3.82;63.44;100282.94;5280833;27;34683;-70
2021/12/14 08:31:39;;;;;;;23.38;11.02;;;;;;;5.15;59.36;100286.78;5298867;27;35161;-70
2021/12/14 08:34:11;;;;;;;14.52;7.90;;;;;;;4.39;59.83;100287.25;5298823;27;35369;-70
2021/12/14 08:36:47;;;;;;;49.05;17.33;;;;;;;4.65;61.43;100292.31;5298772;27;33790;-70
2021/12/14 08:39:24;;;;;;;26.25;10.88;;;;;;;6.08;56.63;100286.50;5299812;27;34013;-70
2021/12/14 08:42:42;;;;;;;18.23;9.68;;;;;;;6.35;56.31;100289.69;5298796;27;35060;-70
2021/12/14 08:45:33;;;;;;;20.00;9.83;;;;;;;5.95;57.03;100293.91;5254778;27;35512;-70
2021/12/14 08:48:01;;;;;;;32.95;13.90;;;;;;;7.90;53.80;100286.50;5298913;27;33415;-70
2021/12/14 08:50:33;;;;;;;16.08;9.10;;;;;;;7.61;53.81;100289.50;5298831;27;33724;-70
2021/12/14 08:53:03;;;;;;;21.75;10.50;;;;;;;8.59;51.91;100291.81;5298932;27;35736;-70
2021/12/14 08:55:33;;;;;;;21.70;10.40;;;;;;;9.70;48.69;100300.75;5299147;27;35259;-70
2021/12/14 08:58:01;;;;;;;30.30;13.25;;;;;;;10.62;46.61;100297.06;5299726;27;33461;-70
2021/12/14 09:00:37;;;;;;;31.48;12.88;;;;;;;11.55;44.39;100294.66;5299840;27;34633;-70
2021/12/14 09:03:08;;;;;;;35.75;14.10;;;;;;;11.60;43.68;100287.72;5300382;27;35171;-71
2021/12/14 09:05:42;;;;;;;29.27;13.35;;;;;;;10.78;44.80;100290.16;5299821;27;34629;-71
2021/12/14 09:08:11;;;;;;;16.42;9.40;;;;;;;8.18;49.95;100289.50;5300157;27;33480;-70
2021/12/14 09:10:43;;;;;;;24.75;10.95;;;;;;;7.81;51.32;100291.53;5299819;27;34023;-70
2021/12/14 09:13:13;;;;;;;16.40;9.13;;;;;;;6.66;54.71;100290.34;5300272;27;35988;-70
2021/12/14 09:15:48;;;;;;;37.72;14.30;;;;;;;7.35;53.30;100284.72;5298537;27;34629;-71
2021/12/14 09:18:18;;;;;;;18.55;10.27;;;;;;;7.77;51.91;100283.72;5299758;27;33466;-70
2021/12/14 09:20:48;;;;;;;20.70;10.20;;;;;;;7.40;54.49;100280.50;5299785;27;33879;-71
2021/12/14 09:23:25;;;;;;;15.60;9.02;;;;;;;7.13;54.39;100280.00;5300017;27;35883;-70
2021/12/14 09:25:53;;;;;;;19.40;9.35;;;;;;;6.58;56.61;100287.56;5299514;27;34249;-70
2021/12/14 09:28:22;;;;;;;15.13;8.98;;;;;;;5.71;58.35;100289.91;5299506;27;33903;-70
2021/12/14 09:30:56;;;;;;;16.40;8.90;;;;;;;5.69;58.79;100291.59;5299881;27;33742;-69
2021/12/14 09:33:26;;;;;;;36.63;12.57;;;;;;;6.41;56.98;100279.47;5300198;27;34975;-70
2021/12/14 09:35:57;;;;;;;19.80;10.65;;;;;;;6.34;58.21;100278.47;5299475;27;35357;-70
2021/12/14 09:38:32;;;;;;;21.52;11.95;;;;;;;7.01;55.56;100276.34;5300307;27;32768;-71
2021/12/14 09:41:04;;;;;;;30.42;12.82;;;;;;;5.93;59.04;100287.84;5300030;27;33597;-71
2021/12/14 09:43:34;;;;;;;21.95;11.85;;;;;;;7.17;56.22;100282.69;5299809;27;35117;-71
2021/12/14 09:46:03;;;;;;;21.58;12.60;;;;;;;7.89;53.81;100274.37;5299939;27;35258;-71
2021/12/14 09:48:36;;;;;;;18.45;10.45;;;;;;;8.70;51.39;100275.50;5299981;27;33554;-71
2021/12/14 09:51:10;;;;;;;46.50;16.30;;;;;;;8.94;49.88;100273.19;5300132;27;34123;-71
2021/12/14 09:53:51;;;;;;;28.65;13.45;;;;;;;9.73;48.25;100275.66;5300228;27;35154;-71
2021/12/14 09:56:21;;;;;;;26.98;11.63;;;;;;;11.19;44.75;100268.56;5299002;27;34401;-71
2021/12/14 09:58:58;;;;;;;23.80;11.70;;;;;;;10.23;47.13;100264.69;5300165;27;34477;-71
2021/12/14 10:01:30;;;;;;;18.42;10.35;;;;;;;11.20;44.67;100257.25;5299989;27;34867;-71
2021/12/14 10:04:02;;;;;;;23.25;11.35;;;;;;;12.02;42.64;100252.06;5299997;27;34699;-71
2021/12/14 10:06:33;;;;;;;18.70;10.20;;;;;;;12.71;41.79;100251.81;5299815;27;34459;-71
2021/12/14 10:09:10;;;;;;;18.98;11.00;;;;;;;13.09;40.48;100252.47;5300163;27;33300;-71
2021/12/14 10:12:15;;;;;;;;;;;;;;;12.68;40.82;100254.44;5300255;27;34907;-71
2021/12/14 10:14:35;;;;;;;23.20;10.98;;;;;;;14.77;36.66;100246.53;5300423;27;36160;-71
2021/12/14 10:17:10;;;;;;;16.73;10.20;;;;;;;14.16;36.83;100249.84;5299188;27;35326;-72
2021/12/14 10:19:39;;;;;;;20.67;11.23;;;;;;;12.68;39.69;100241.38;5300303;27;33556;-72
2021/12/14 10:22:31;;;;;;;25.90;12.40;;;;;;;14.50;37.24;100245.06;5300194;27;34043;-71
2021/12/14 10:25:04;;;;;;;19.30;11.52;;;;;;;13.52;38.47;100240.84;5300294;27;34994;-71
2021/12/14 10:27:34;;;;;;;24.92;13.48;;;;;;;13.24;39.19;100247.13;5298579;27;34449;-71
2021/12/14 10:30:21;;;;;;;22.27;13.38;;;;;;;13.48;39.14;100234.78;5300364;27;32951;-71
2021/12/14 10:32:50;;;;;;;30.50;14.50;;;;;;;13.02;39.68;100235.97;5299411;27;33982;-71
2021/12/14 10:35:24;;;;;;;37.60;16.92;;;;;;;14.64;36.92;100242.31;5300152;27;34851;-72
2021/12/14 10:43:41;;;;;;;27.00;13.95;;;;;;;11.86;41.95;100234.63;5300334;27;34900;-71
2021/12/14 10:46:24;;;;;;;23.38;13.93;;;;;;;12.96;40.34;100238.59;5299656;27;35050;-72
2021/12/14 10:48:52;;;;;;;38.08;16.20;;;;;;;14.19;37.85;100237.59;5300089;27;34211;-71
2021/12/14 10:51:26;;;;;;;23.77;13.68;;;;;;;13.87;38.43;100234.44;5299753;27;33641;-72
2021/12/14 10:54:00;;;;;;;24.33;13.35;;;;;;;12.94;39.18;100227.28;5300333;27;33793;-72
2021/12/14 10:56:43;;;;;;;26.10;14.02;;;;;;;12.61;40.52;100234.44;5299769;27;34975;-71
2021/12/14 10:59:15;;;;;;;27.77;15.43;;;;;;;14.70;37.10;100230.87;5300231;27;35304;-72
2021/12/14 11:01:50;;;;;;;52.13;19.75;;;;;;;14.08;37.59;100233.34;5299187;27;34257;-73
2021/12/14 11:04:26;;;;;;;27.20;14.68;;;;;;;16.13;34.26;100231.25;5299416;27;34863;-72
2021/12/14 11:06:57;;;;;;;37.88;17.00;;;;;;;14.38;36.61;100235.62;5299192;27;35194;-71
2021/12/14 11:09:45;;;;;;;32.38;14.95;;;;;;;14.52;36.65;100232.81;5299770;27;34514;-71
2021/12/14 11:12:27;;;;;;;23.73;14.38;;;;;;;14.98;36.41;100232.25;5299745;27;33778;-71
2021/12/14 11:15:04;;;;;;;54.83;19.20;;;;;;;17.55;32.44;100215.81;5300372;27;34944;-72
2021/12/14 11:20:27;;;;;;;40.83;17.98;;;;;;;17.20;32.26;100217.53;5299504;27;35266;-72
2021/12/14 11:23:16;;;;;;;35.22;15.05;;;;;;;18.00;30.68;100217.34;5299534;27;33635;-71
2021/12/14 11:25:54;;;;;;;98.12;30.42;;;;;;;15.63;34.32;100207.56;5300186;27;33895;-72
2021/12/14 11:28:39;;;;;;;28.67;14.18;;;;;;;16.08;32.65;100223.44;5300178;27;35186;-72
2021/12/14 11:31:25;;;;;;;26.65;14.85;;;;;;;17.76;31.27;100224.09;5299449;27;35025;-72
2021/12/14 11:34:11;;;;;;;30.17;15.27;;;;;;;16.97;32.79;100222.50;5292076;27;33704;-72
2021/12/14 11:37:08;;;;;;;20.85;12.73;;;;;;;14.82;35.69;100219.38;5299319;27;34059;-72
2021/12/14 11:39:48;;;;;;;91.72;30.90;;;;;;;14.15;37.16;100214.94;5300071;27;34930;-71
2021/12/14 11:42:19;;;;;;;23.17;12.93;;;;;;;14.05;37.13;100218.53;5297647;27;32913;-72
2021/12/14 11:45:08;;;;;;;28.45;14.75;;;;;;;13.63;38.07;100218.94;5299621;27;33687;-71
2021/12/14 11:50:20;;;;;;;29.20;15.18;;;;;;;15.39;35.24;100211.50;5296825;27;36067;-72
2021/12/14 11:53:16;;;;;;;19.58;11.65;;;;;;;14.36;36.42;100212.94;5299524;27;34459;-72
2021/12/14 11:55:56;;;;;;;19.87;11.18;;;;;;;14.85;35.92;100209.69;5296407;27;33417;-72
2021/12/14 11:58:33;;;;;;;30.58;12.82;;;;;;;14.40;36.60;100201.56;5299386;27;33752;-72
2021/12/14 12:01:15;;;;;;;22.52;12.63;;;;;;;11.75;41.84;100204.22;5299283;27;35029;-72
2021/12/14 12:03:52;;;;;;;24.23;11.77;;;;;;;13.45;38.74;100204.28;5299096;27;34644;-72
2021/12/14 12:09:29;;;;;;;22.58;12.15;;;;;;;13.61;38.44;100198.91;5299375;27;33970;-72
2021/12/14 12:12:03;;;;;;;22.00;11.35;;;;;;;12.49;39.87;100208.38;5299282;27;34954;-72
2021/12/14 12:14:31;;;;;;;21.02;10.98;;;;;;;13.15;39.26;100207.13;5299527;27;34385;-72
2021/12/14 12:17:24;;;;;;;26.02;12.80;;;;;;;12.10;40.99;100210.25;5297875;27;33666;-72
2021/12/14 12:20:21;;;;;;;20.27;11.95;;;;;;;12.08;41.43;100206.78;5298939;27;33985;-71
2021/12/14 12:23:11;;;;;;;80.97;26.08;;;;;;;12.68;40.57;100202.16;5299512;27;34922;-71
2021/12/14 12:25:45;;;;;;;37.83;15.05;;;;;;;12.62;41.29;100207.44;5298223;27;34575;-71
2021/12/14 12:28:16;;;;;;;22.40;11.48;;;;;;;11.49;42.07;100195.56;5299513;27;33670;-71
2021/12/14 12:30:46;;;;;;;23.77;12.70;;;;;;;11.57;42.44;100194.66;5299371;27;34009;-72
2021/12/14 12:33:19;;;;;;;26.73;13.48;;;;;;;11.05;44.13;100197.28;5298816;27;35942;-71
2021/12/14 12:35:50;;;;;;;48.95;19.80;;;;;;;11.00;43.93;100201.62;5299394;27;34328;-71